sensor_id;sensor_type;location;lat;lon;timestamp;P1;durP1;ratioP1;P2;durP2;ratioP2
15287;SDS011;7745;48.708;9.026;2023-04-12T00:00:10;6.90;;;1.87;;
15287;SDS011;7745;48.708;9.026;2023-04-12T00:02:39;5.57;;;1.53;;
15287;SDS011;7745;48.708;9.026;2023-04-12T00:05:08;3.43;;;1.80;;
15287;SDS011;7745;48.708;9.026;2023-04-12T00:07:36;5.80;;;2.23;;
15287;SDS011;7745;48.708;9.026;2023-04-12T00:10:04;8.67;;;2.10;;
15287;SDS011;7745;48.708;9.026;2023-04-12T00:12:32;5.53;;;2.10;;
15287;SDS011;7745;48.708;9.026;2023-04-12T00:15:01;6.37;;;2.00;;
15287;SDS011;7745;48.708;9.026;2023-04-12T00:17:32;5.57;;;2.03;;
15287;SDS011;7745;48.708;9.026;2023-04-12T00:20:00;3.63;;;1.90;;
15287;SDS011;7745;48.708;9.026;2023-04-12T00:22:30;4.57;;;2.00;;
15287;SDS011;7745;48.708;9.026;2023-04-12T00:25:00;4.13;;;2.07;;
15287;SDS011;7745;48.708;9.026;2023-04-12T00:27:28;5.37;;;2.17;;
15287;SDS011;7745;48.708;9.026;2023-04-12T00:29:56;6.87;;;2.03;;
15287;SDS011;7745;48.708;9.026;2023-04-12T00:32:26;8.00;;;2.60;;
15287;SDS011;7745;48.708;9.026;2023-04-12T00:34:55;5.23;;;2.00;;
15287;SDS011;7745;48.708;9.026;2023-04-12T00:37:22;6.80;;;2.53;;
15287;SDS011;7745;48.708;9.026;2023-04-12T00:39:50;5.63;;;2.80;;
15287;SDS011;7745;48.708;9.026;2023-04-12T00:42:18;7.27;;;2.53;;
15287;SDS011;7745;48.708;9.026;2023-04-12T00:44:47;4.87;;;2.20;;
15287;SDS011;7745;48.708;9.026;2023-04-12T00:47:15;5.30;;;2.53;;
15287;SDS011;7745;48.708;9.026;2023-04-12T00:49:47;6.13;;;2.53;;
15287;SDS011;7745;48.708;9.026;2023-04-12T00:52:17;6.57;;;2.60;;
15287;SDS011;7745;48.708;9.026;2023-04-12T00:58:17;4.67;;;2.10;;
15287;SDS011;7745;48.708;9.026;2023-04-12T01:01:03;8.00;;;2.57;;
15287;SDS011;7745;48.708;9.026;2023-04-12T01:22:01;6.67;;;2.50;;
15287;SDS011;7745;48.708;9.026;2023-04-12T01:28:55;6.23;;;2.20;;
15287;SDS011;7745;48.708;9.026;2023-04-12T01:38:27;6.13;;;2.30;;
15287;SDS011;7745;48.708;9.026;2023-04-12T01:52:00;6.87;;;2.50;;
15287;SDS011;7745;48.708;9.026;2023-04-12T01:55:42;5.77;;;2.40;;
15287;SDS011;7745;48.708;9.026;2023-04-12T02:01:47;7.47;;;2.67;;
15287;SDS011;7745;48.708;9.026;2023-04-12T02:20:37;8.30;;;2.83;;
15287;SDS011;7745;48.708;9.026;2023-04-12T02:26:59;8.23;;;2.80;;
15287;SDS011;7745;48.708;9.026;2023-04-12T02:29:48;7.30;;;2.90;;
15287;SDS011;7745;48.708;9.026;2023-04-12T02:55:48;5.83;;;2.50;;
15287;SDS011;7745;48.708;9.026;2023-04-12T03:02:29;5.13;;;2.50;;
15287;SDS011;7745;48.708;9.026;2023-04-12T03:12:49;8.80;;;2.87;;
15287;SDS011;7745;48.708;9.026;2023-04-12T03:18:52;5.43;;;2.87;;
15287;SDS011;7745;48.708;9.026;2023-04-12T03:25:04;3.93;;;3.00;;
15287;SDS011;7745;48.708;9.026;2023-04-12T03:31:16;8.47;;;3.23;;
15287;SDS011;7745;48.708;9.026;2023-04-12T03:34:27;8.10;;;3.00;;
15287;SDS011;7745;48.708;9.026;2023-04-12T03:41:05;6.60;;;2.80;;
15287;SDS011;7745;48.708;9.026;2023-04-12T03:47:02;7.30;;;3.23;;
15287;SDS011;7745;48.708;9.026;2023-04-12T03:50:31;8.00;;;2.87;;
15287;SDS011;7745;48.708;9.026;2023-04-12T03:53:35;3.77;;;2.20;;
15287;SDS011;7745;48.708;9.026;2023-04-12T03:56:15;6.07;;;2.73;;
15287;SDS011;7745;48.708;9.026;2023-04-12T03:58:44;4.40;;;2.23;;
15287;SDS011;7745;48.708;9.026;2023-04-12T04:01:11;3.70;;;2.23;;
15287;SDS011;7745;48.708;9.026;2023-04-12T04:03:40;4.63;;;2.33;;
15287;SDS011;7745;48.708;9.026;2023-04-12T04:06:07;5.33;;;2.23;;
15287;SDS011;7745;48.708;9.026;2023-04-12T04:08:34;8.07;;;2.50;;
15287;SDS011;7745;48.708;9.026;2023-04-12T04:11:02;4.27;;;2.60;;
15287;SDS011;7745;48.708;9.026;2023-04-12T04:13:30;4.93;;;2.57;;
15287;SDS011;7745;48.708;9.026;2023-04-12T04:15:58;6.87;;;2.97;;
15287;SDS011;7745;48.708;9.026;2023-04-12T04:18:28;5.27;;;3.23;;
15287;SDS011;7745;48.708;9.026;2023-04-12T04:20:56;6.20;;;3.20;;
15287;SDS011;7745;48.708;9.026;2023-04-12T04:23:23;6.07;;;3.23;;
15287;SDS011;7745;48.708;9.026;2023-04-12T04:25:53;5.57;;;3.23;;
15287;SDS011;7745;48.708;9.026;2023-04-12T04:28:19;5.30;;;2.87;;
15287;SDS011;7745;48.708;9.026;2023-04-12T04:30:52;7.43;;;2.47;;
15287;SDS011;7745;48.708;9.026;2023-04-12T04:33:22;7.43;;;3.03;;
15287;SDS011;7745;48.708;9.026;2023-04-12T04:36:03;3.80;;;2.93;;
15287;SDS011;7745;48.708;9.026;2023-04-12T04:38:43;4.97;;;3.17;;
15287;SDS011;7745;48.708;9.026;2023-04-12T04:41:28;4.63;;;2.70;;
15287;SDS011;7745;48.708;9.026;2023-04-12T04:44:03;6.30;;;2.80;;
15287;SDS011;7745;48.708;9.026;2023-04-12T04:46:44;6.30;;;3.03;;
15287;SDS011;7745;48.708;9.026;2023-04-12T04:49:32;6.40;;;2.77;;
15287;SDS011;7745;48.708;9.026;2023-04-12T04:52:12;5.80;;;3.00;;
15287;SDS011;7745;48.708;9.026;2023-04-12T04:55:05;6.97;;;3.40;;
15287;SDS011;7745;48.708;9.026;2023-04-12T04:57:48;6.67;;;3.57;;
15287;SDS011;7745;48.708;9.026;2023-04-12T05:00:24;9.10;;;3.70;;
15287;SDS011;7745;48.708;9.026;2023-04-12T05:03:07;4.57;;;3.40;;
15287;SDS011;7745;48.708;9.026;2023-04-12T05:05:57;4.87;;;3.50;;
15287;SDS011;7745;48.708;9.026;2023-04-12T05:08:50;8.27;;;3.33;;
15287;SDS011;7745;48.708;9.026;2023-04-12T05:11:42;5.83;;;3.43;;
15287;SDS011;7745;48.708;9.026;2023-04-12T05:14:35;8.03;;;3.60;;
15287;SDS011;7745;48.708;9.026;2023-04-12T05:17:13;5.87;;;3.30;;
15287;SDS011;7745;48.708;9.026;2023-04-12T05:20:05;7.90;;;3.50;;
15287;SDS011;7745;48.708;9.026;2023-04-12T05:22:51;7.43;;;3.60;;
15287;SDS011;7745;48.708;9.026;2023-04-12T05:29:07;5.03;;;2.87;;
15287;SDS011;7745;48.708;9.026;2023-04-12T05:31:57;6.73;;;3.47;;
15287;SDS011;7745;48.708;9.026;2023-04-12T05:34:38;5.03;;;2.80;;
15287;SDS011;7745;48.708;9.026;2023-04-12T05:37:10;5.50;;;3.87;;
15287;SDS011;7745;48.708;9.026;2023-04-12T05:39:47;5.97;;;3.03;;
15287;SDS011;7745;48.708;9.026;2023-04-12T05:42:14;4.70;;;2.90;;
15287;SDS011;7745;48.708;9.026;2023-04-12T05:44:55;5.10;;;3.10;;
15287;SDS011;7745;48.708;9.026;2023-04-12T05:47:36;3.50;;;2.60;;
15287;SDS011;7745;48.708;9.026;2023-04-12T05:50:15;9.20;;;3.03;;
15287;SDS011;7745;48.708;9.026;2023-04-12T05:53:21;6.17;;;2.80;;
15287;SDS011;7745;48.708;9.026;2023-04-12T05:56:20;4.50;;;2.93;;
15287;SDS011;7745;48.708;9.026;2023-04-12T05:58:53;5.40;;;3.30;;
15287;SDS011;7745;48.708;9.026;2023-04-12T06:01:26;4.13;;;2.73;;
15287;SDS011;7745;48.708;9.026;2023-04-12T06:04:20;5.90;;;3.10;;
15287;SDS011;7745;48.708;9.026;2023-04-12T06:10:32;3.03;;;2.43;;
15287;SDS011;7745;48.708;9.026;2023-04-12T06:13:27;4.83;;;2.53;;
15287;SDS011;7745;48.708;9.026;2023-04-12T06:30:26;4.60;;;2.30;;
15287;SDS011;7745;48.708;9.026;2023-04-12T06:33:13;3.87;;;2.23;;
15287;SDS011;7745;48.708;9.026;2023-04-12T06:35:45;5.50;;;2.53;;
15287;SDS011;7745;48.708;9.026;2023-04-12T06:38:29;4.87;;;2.53;;
15287;SDS011;7745;48.708;9.026;2023-04-12T06:44:38;3.90;;;2.27;;
15287;SDS011;7745;48.708;9.026;2023-04-12T06:49:13;6.73;;;2.20;;
15287;SDS011;7745;48.708;9.026;2023-04-12T07:01:41;4.27;;;2.20;;
15287;SDS011;7745;48.708;9.026;2023-04-12T07:04:21;3.63;;;2.40;;
15287;SDS011;7745;48.708;9.026;2023-04-12T07:40:15;3.40;;;1.83;;
15287;SDS011;7745;48.708;9.026;2023-04-12T07:43:29;5.17;;;2.33;;
15287;SDS011;7745;48.708;9.026;2023-04-12T07:46:20;3.97;;;2.03;;
15287;SDS011;7745;48.708;9.026;2023-04-12T07:56:38;3.33;;;2.00;;
15287;SDS011;7745;48.708;9.026;2023-04-12T07:59:46;4.90;;;2.20;;
15287;SDS011;7745;48.708;9.026;2023-04-12T08:05:22;3.40;;;1.87;;
15287;SDS011;7745;48.708;9.026;2023-04-12T08:07:48;3.23;;;1.77;;
15287;SDS011;7745;48.708;9.026;2023-04-12T08:10:15;4.57;;;2.00;;
15287;SDS011;7745;48.708;9.026;2023-04-12T08:12:43;2.90;;;1.93;;
15287;SDS011;7745;48.708;9.026;2023-04-12T08:15:11;5.20;;;2.03;;
15287;SDS011;7745;48.708;9.026;2023-04-12T08:17:38;4.73;;;2.30;;
15287;SDS011;7745;48.708;9.026;2023-04-12T08:20:08;3.87;;;1.60;;
15287;SDS011;7745;48.708;9.026;2023-04-12T08:22:35;2.60;;;2.10;;
15287;SDS011;7745;48.708;9.026;2023-04-12T08:25:02;3.70;;;2.00;;
15287;SDS011;7745;48.708;9.026;2023-04-12T08:27:29;4.30;;;2.10;;
15287;SDS011;7745;48.708;9.026;2023-04-12T08:29:57;3.10;;;1.97;;
15287;SDS011;7745;48.708;9.026;2023-04-12T08:32:24;3.00;;;1.90;;
15287;SDS011;7745;48.708;9.026;2023-04-12T08:34:51;2.37;;;1.70;;
15287;SDS011;7745;48.708;9.026;2023-04-12T08:37:19;4.77;;;1.77;;
15287;SDS011;7745;48.708;9.026;2023-04-12T08:39:46;2.83;;;1.50;;
15287;SDS011;7745;48.708;9.026;2023-04-12T08:42:13;4.07;;;1.70;;
15287;SDS011;7745;48.708;9.026;2023-04-12T08:51:19;3.23;;;1.40;;
15287;SDS011;7745;48.708;9.026;2023-04-12T08:55:02;4.00;;;1.60;;
15287;SDS011;7745;48.708;9.026;2023-04-12T08:58:11;2.40;;;1.27;;
15287;SDS011;7745;48.708;9.026;2023-04-12T09:01:11;2.20;;;1.77;;
15287;SDS011;7745;48.708;9.026;2023-04-12T09:13:31;4.17;;;1.73;;
15287;SDS011;7745;48.708;9.026;2023-04-12T09:16:02;2.80;;;1.80;;
15287;SDS011;7745;48.708;9.026;2023-04-12T09:18:30;4.87;;;1.77;;
15287;SDS011;7745;48.708;9.026;2023-04-12T09:21:13;2.57;;;1.83;;
15287;SDS011;7745;48.708;9.026;2023-04-12T09:23:40;4.70;;;2.20;;
15287;SDS011;7745;48.708;9.026;2023-04-12T09:26:07;3.13;;;1.80;;
15287;SDS011;7745;48.708;9.026;2023-04-12T09:28:34;4.47;;;2.03;;
15287;SDS011;7745;48.708;9.026;2023-04-12T09:31:07;5.77;;;2.23;;
15287;SDS011;7745;48.708;9.026;2023-04-12T09:33:47;3.53;;;2.17;;
15287;SDS011;7745;48.708;9.026;2023-04-12T09:36:17;4.73;;;1.93;;
15287;SDS011;7745;48.708;9.026;2023-04-12T09:38:57;2.80;;;1.80;;
15287;SDS011;7745;48.708;9.026;2023-04-12T09:41:25;4.67;;;2.13;;
15287;SDS011;7745;48.708;9.026;2023-04-12T09:43:54;7.67;;;2.40;;
15287;SDS011;7745;48.708;9.026;2023-04-12T09:46:21;4.67;;;2.27;;
15287;SDS011;7745;48.708;9.026;2023-04-12T09:48:49;4.17;;;2.10;;
15287;SDS011;7745;48.708;9.026;2023-04-12T09:51:24;5.23;;;1.70;;
15287;SDS011;7745;48.708;9.026;2023-04-12T09:53:52;3.53;;;2.00;;
15287;SDS011;7745;48.708;9.026;2023-04-12T09:56:21;5.83;;;2.00;;
15287;SDS011;7745;48.708;9.026;2023-04-12T09:58:49;4.07;;;1.70;;
15287;SDS011;7745;48.708;9.026;2023-04-12T10:01:33;2.60;;;1.70;;
15287;SDS011;7745;48.708;9.026;2023-04-12T10:04:03;3.30;;;2.10;;
15287;SDS011;7745;48.708;9.026;2023-04-12T10:06:31;4.10;;;1.80;;
15287;SDS011;7745;48.708;9.026;2023-04-12T10:08:58;2.43;;;1.80;;
15287;SDS011;7745;48.708;9.026;2023-04-12T10:11:28;3.43;;;1.80;;
15287;SDS011;7745;48.708;9.026;2023-04-12T10:13:55;3.93;;;2.10;;
15287;SDS011;7745;48.708;9.026;2023-04-12T10:16:22;6.10;;;2.37;;
15287;SDS011;7745;48.708;9.026;2023-04-12T10:18:51;5.17;;;2.40;;
15287;SDS011;7745;48.708;9.026;2023-04-12T10:21:24;3.60;;;1.83;;
15287;SDS011;7745;48.708;9.026;2023-04-12T10:23:50;5.00;;;2.20;;
15287;SDS011;7745;48.708;9.026;2023-04-12T10:26:19;4.23;;;1.90;;
15287;SDS011;7745;48.708;9.026;2023-04-12T10:28:51;3.90;;;1.90;;
15287;SDS011;7745;48.708;9.026;2023-04-12T10:31:50;3.73;;;1.80;;
15287;SDS011;7745;48.708;9.026;2023-04-12T10:34:18;3.03;;;1.73;;
15287;SDS011;7745;48.708;9.026;2023-04-12T10:36:51;2.10;;;1.40;;
15287;SDS011;7745;48.708;9.026;2023-04-12T10:39:33;3.37;;;1.40;;
15287;SDS011;7745;48.708;9.026;2023-04-12T10:42:20;4.63;;;1.50;;
15287;SDS011;7745;48.708;9.026;2023-04-12T10:44:49;4.43;;;1.90;;
15287;SDS011;7745;48.708;9.026;2023-04-12T10:50:21;3.23;;;1.73;;
15287;SDS011;7745;48.708;9.026;2023-04-12T10:55:50;3.87;;;1.70;;
15287;SDS011;7745;48.708;9.026;2023-04-12T11:01:25;5.17;;;1.40;;
15287;SDS011;7745;48.708;9.026;2023-04-12T11:04:09;2.53;;;1.27;;
15287;SDS011;7745;48.708;9.026;2023-04-12T11:06:54;3.20;;;1.20;;
15287;SDS011;7745;48.708;9.026;2023-04-12T11:09:24;3.17;;;1.43;;
15287;SDS011;7745;48.708;9.026;2023-04-12T11:12:09;1.73;;;1.00;;
15287;SDS011;7745;48.708;9.026;2023-04-12T11:14:39;3.43;;;1.40;;
15287;SDS011;7745;48.708;9.026;2023-04-12T11:17:25;2.33;;;1.03;;
15287;SDS011;7745;48.708;9.026;2023-04-12T11:19:53;1.60;;;1.10;;
15287;SDS011;7745;48.708;9.026;2023-04-12T11:22:22;2.43;;;1.20;;
15287;SDS011;7745;48.708;9.026;2023-04-12T11:24:52;3.20;;;1.10;;
15287;SDS011;7745;48.708;9.026;2023-04-12T11:27:20;1.37;;;0.90;;
15287;SDS011;7745;48.708;9.026;2023-04-12T11:29:48;1.70;;;1.10;;
15287;SDS011;7745;48.708;9.026;2023-04-12T11:32:16;1.77;;;0.87;;
15287;SDS011;7745;48.708;9.026;2023-04-12T11:34:44;1.80;;;1.00;;
15287;SDS011;7745;48.708;9.026;2023-04-12T11:37:12;2.07;;;1.10;;
15287;SDS011;7745;48.708;9.026;2023-04-12T11:39:39;1.73;;;1.00;;
15287;SDS011;7745;48.708;9.026;2023-04-12T11:42:12;1.57;;;1.10;;
15287;SDS011;7745;48.708;9.026;2023-04-12T11:44:41;2.73;;;1.20;;
15287;SDS011;7745;48.708;9.026;2023-04-12T11:47:12;2.93;;;1.30;;
15287;SDS011;7745;48.708;9.026;2023-04-12T11:49:43;3.10;;;1.43;;
15287;SDS011;7745;48.708;9.026;2023-04-12T11:52:12;2.60;;;1.40;;
15287;SDS011;7745;48.708;9.026;2023-04-12T11:54:40;1.60;;;0.90;;
15287;SDS011;7745;48.708;9.026;2023-04-12T11:57:09;2.17;;;0.97;;
15287;SDS011;7745;48.708;9.026;2023-04-12T11:59:38;4.23;;;0.97;;
15287;SDS011;7745;48.708;9.026;2023-04-12T12:02:08;2.27;;;0.90;;
15287;SDS011;7745;48.708;9.026;2023-04-12T12:04:36;3.13;;;1.10;;
15287;SDS011;7745;48.708;9.026;2023-04-12T12:07:03;1.50;;;0.90;;
15287;SDS011;7745;48.708;9.026;2023-04-12T12:09:31;5.77;;;1.20;;
15287;SDS011;7745;48.708;9.026;2023-04-12T12:11:58;1.30;;;0.90;;
15287;SDS011;7745;48.708;9.026;2023-04-12T12:14:26;1.33;;;0.80;;
15287;SDS011;7745;48.708;9.026;2023-04-12T12:16:54;1.57;;;1.20;;
15287;SDS011;7745;48.708;9.026;2023-04-12T12:19:26;1.47;;;0.90;;
15287;SDS011;7745;48.708;9.026;2023-04-12T12:21:54;2.33;;;0.73;;
15287;SDS011;7745;48.708;9.026;2023-04-12T12:24:35;1.07;;;0.90;;
15287;SDS011;7745;48.708;9.026;2023-04-12T12:27:02;1.83;;;1.10;;
15287;SDS011;7745;48.708;9.026;2023-04-12T12:29:37;1.57;;;0.80;;
15287;SDS011;7745;48.708;9.026;2023-04-12T12:32:10;2.90;;;0.90;;
15287;SDS011;7745;48.708;9.026;2023-04-12T12:34:38;2.30;;;1.00;;
15287;SDS011;7745;48.708;9.026;2023-04-12T12:37:06;1.57;;;0.73;;
15287;SDS011;7745;48.708;9.026;2023-04-12T12:39:34;2.50;;;0.90;;
15287;SDS011;7745;48.708;9.026;2023-04-12T12:42:01;1.83;;;0.83;;
15287;SDS011;7745;48.708;9.026;2023-04-12T12:44:29;2.70;;;1.00;;
15287;SDS011;7745;48.708;9.026;2023-04-12T12:46:58;2.40;;;1.67;;
15287;SDS011;7745;48.708;9.026;2023-04-12T12:49:26;4.00;;;1.00;;
15287;SDS011;7745;48.708;9.026;2023-04-12T12:51:53;1.40;;;0.90;;
15287;SDS011;7745;48.708;9.026;2023-04-12T12:54:20;0.90;;;0.80;;
15287;SDS011;7745;48.708;9.026;2023-04-12T12:56:47;2.17;;;0.97;;
15287;SDS011;7745;48.708;9.026;2023-04-12T12:59:14;3.17;;;1.10;;
15287;SDS011;7745;48.708;9.026;2023-04-12T13:01:40;2.10;;;0.83;;
15287;SDS011;7745;48.708;9.026;2023-04-12T13:04:08;2.70;;;1.03;;
15287;SDS011;7745;48.708;9.026;2023-04-12T13:06:35;1.43;;;0.80;;
15287;SDS011;7745;48.708;9.026;2023-04-12T13:09:03;1.10;;;0.83;;
15287;SDS011;7745;48.708;9.026;2023-04-12T13:11:30;3.50;;;0.83;;
15287;SDS011;7745;48.708;9.026;2023-04-12T13:13:57;3.37;;;1.03;;
15287;SDS011;7745;48.708;9.026;2023-04-12T13:16:24;2.30;;;0.97;;
15287;SDS011;7745;48.708;9.026;2023-04-12T13:18:51;1.77;;;0.80;;
15287;SDS011;7745;48.708;9.026;2023-04-12T13:21:19;2.97;;;1.10;;
15287;SDS011;7745;48.708;9.026;2023-04-12T13:23:46;1.03;;;0.67;;
15287;SDS011;7745;48.708;9.026;2023-04-12T13:26:13;2.43;;;0.93;;
15287;SDS011;7745;48.708;9.026;2023-04-12T13:28:46;2.60;;;1.00;;
15287;SDS011;7745;48.708;9.026;2023-04-12T13:31:17;3.17;;;0.80;;
15287;SDS011;7745;48.708;9.026;2023-04-12T13:33:46;3.13;;;0.97;;
15287;SDS011;7745;48.708;9.026;2023-04-12T13:36:15;1.13;;;0.80;;
15287;SDS011;7745;48.708;9.026;2023-04-12T13:38:47;2.30;;;0.87;;
15287;SDS011;7745;48.708;9.026;2023-04-12T13:41:15;1.50;;;0.80;;
15287;SDS011;7745;48.708;9.026;2023-04-12T13:43:43;2.60;;;0.90;;
15287;SDS011;7745;48.708;9.026;2023-04-12T13:46:12;2.83;;;0.60;;
15287;SDS011;7745;48.708;9.026;2023-04-12T13:48:41;2.00;;;0.80;;
15287;SDS011;7745;48.708;9.026;2023-04-12T13:51:08;2.43;;;1.00;;
15287;SDS011;7745;48.708;9.026;2023-04-12T13:53:37;2.13;;;1.00;;
15287;SDS011;7745;48.708;9.026;2023-04-12T13:56:10;1.20;;;0.73;;
15287;SDS011;7745;48.708;9.026;2023-04-12T13:58:40;2.77;;;0.70;;
15287;SDS011;7745;48.708;9.026;2023-04-12T14:01:09;2.33;;;0.73;;
15287;SDS011;7745;48.708;9.026;2023-04-12T14:03:37;2.60;;;0.73;;
15287;SDS011;7745;48.708;9.026;2023-04-12T14:06:09;1.47;;;1.10;;
15287;SDS011;7745;48.708;9.026;2023-04-12T14:08:39;1.27;;;0.80;;
15287;SDS011;7745;48.708;9.026;2023-04-12T14:11:21;1.67;;;0.73;;
15287;SDS011;7745;48.708;9.026;2023-04-12T14:13:51;1.17;;;0.80;;
15287;SDS011;7745;48.708;9.026;2023-04-12T14:16:27;2.30;;;0.80;;
15287;SDS011;7745;48.708;9.026;2023-04-12T14:19:04;3.13;;;1.03;;
15287;SDS011;7745;48.708;9.026;2023-04-12T14:21:31;2.67;;;0.70;;
15287;SDS011;7745;48.708;9.026;2023-04-12T14:23:58;1.77;;;0.53;;
15287;SDS011;7745;48.708;9.026;2023-04-12T14:26:26;0.87;;;0.50;;
15287;SDS011;7745;48.708;9.026;2023-04-12T14:28:53;1.03;;;0.60;;
15287;SDS011;7745;48.708;9.026;2023-04-12T14:31:20;3.37;;;0.73;;
15287;SDS011;7745;48.708;9.026;2023-04-12T14:33:47;1.37;;;0.70;;
15287;SDS011;7745;48.708;9.026;2023-04-12T14:36:13;0.70;;;0.63;;
15287;SDS011;7745;48.708;9.026;2023-04-12T14:38:40;2.30;;;0.63;;
15287;SDS011;7745;48.708;9.026;2023-04-12T14:41:08;2.53;;;0.73;;
15287;SDS011;7745;48.708;9.026;2023-04-12T14:43:36;1.30;;;0.70;;
15287;SDS011;7745;48.708;9.026;2023-04-12T14:46:03;3.07;;;0.60;;
15287;SDS011;7745;48.708;9.026;2023-04-12T14:48:30;1.70;;;0.70;;
15287;SDS011;7745;48.708;9.026;2023-04-12T14:50:57;2.53;;;0.70;;
15287;SDS011;7745;48.708;9.026;2023-04-12T14:53:24;2.43;;;0.80;;
15287;SDS011;7745;48.708;9.026;2023-04-12T14:55:51;2.40;;;0.70;;
15287;SDS011;7745;48.708;9.026;2023-04-12T14:58:17;3.30;;;0.70;;
15287;SDS011;7745;48.708;9.026;2023-04-12T15:00:45;1.27;;;0.60;;
15287;SDS011;7745;48.708;9.026;2023-04-12T15:03:13;0.70;;;0.50;;
15287;SDS011;7745;48.708;9.026;2023-04-12T15:05:40;1.87;;;0.50;;
15287;SDS011;7745;48.708;9.026;2023-04-12T15:08:07;1.53;;;0.70;;
15287;SDS011;7745;48.708;9.026;2023-04-12T15:10:34;0.90;;;0.60;;
15287;SDS011;7745;48.708;9.026;2023-04-12T15:13:01;1.93;;;0.70;;
15287;SDS011;7745;48.708;9.026;2023-04-12T15:15:28;1.87;;;0.60;;
15287;SDS011;7745;48.708;9.026;2023-04-12T15:17:56;3.03;;;0.30;;
15287;SDS011;7745;48.708;9.026;2023-04-12T15:20:23;0.70;;;0.47;;
15287;SDS011;7745;48.708;9.026;2023-04-12T15:22:49;1.80;;;0.70;;
15287;SDS011;7745;48.708;9.026;2023-04-12T15:25:16;4.63;;;0.83;;
15287;SDS011;7745;48.708;9.026;2023-04-12T15:27:44;0.60;;;0.60;;
15287;SDS011;7745;48.708;9.026;2023-04-12T15:30:12;1.17;;;0.67;;
15287;SDS011;7745;48.708;9.026;2023-04-12T15:32:39;1.40;;;0.40;;
15287;SDS011;7745;48.708;9.026;2023-04-12T15:35:08;0.73;;;0.60;;
15287;SDS011;7745;48.708;9.026;2023-04-12T15:37:35;1.87;;;0.80;;
15287;SDS011;7745;48.708;9.026;2023-04-12T15:40:04;0.57;;;0.50;;
15287;SDS011;7745;48.708;9.026;2023-04-12T15:42:37;0.37;;;0.37;;
15287;SDS011;7745;48.708;9.026;2023-04-12T15:45:05;1.87;;;0.57;;
15287;SDS011;7745;48.708;9.026;2023-04-12T15:47:33;2.10;;;0.50;;
15287;SDS011;7745;48.708;9.026;2023-04-12T15:50:00;0.87;;;0.60;;
15287;SDS011;7745;48.708;9.026;2023-04-12T15:52:28;1.00;;;0.83;;
15287;SDS011;7745;48.708;9.026;2023-04-12T15:54:55;0.93;;;0.70;;
15287;SDS011;7745;48.708;9.026;2023-04-12T15:57:24;1.40;;;0.63;;
15287;SDS011;7745;48.708;9.026;2023-04-12T15:59:52;2.37;;;0.60;;
15287;SDS011;7745;48.708;9.026;2023-04-12T16:02:22;1.33;;;0.50;;
15287;SDS011;7745;48.708;9.026;2023-04-12T16:04:49;1.23;;;0.60;;
15287;SDS011;7745;48.708;9.026;2023-04-12T16:07:19;1.27;;;0.70;;
15287;SDS011;7745;48.708;9.026;2023-04-12T16:09:47;0.30;;;0.30;;
15287;SDS011;7745;48.708;9.026;2023-04-12T16:12:14;1.33;;;0.77;;
15287;SDS011;7745;48.708;9.026;2023-04-12T16:14:41;6.30;;;3.67;;
15287;SDS011;7745;48.708;9.026;2023-04-12T16:17:08;8.77;;;5.30;;
15287;SDS011;7745;48.708;9.026;2023-04-12T16:19:35;1.40;;;1.07;;
15287;SDS011;7745;48.708;9.026;2023-04-12T16:22:02;1.03;;;0.50;;
15287;SDS011;7745;48.708;9.026;2023-04-12T16:24:29;1.33;;;0.60;;
15287;SDS011;7745;48.708;9.026;2023-04-12T16:26:58;1.00;;;0.60;;
15287;SDS011;7745;48.708;9.026;2023-04-12T16:29:25;1.53;;;0.90;;
15287;SDS011;7745;48.708;9.026;2023-04-12T16:31:53;3.40;;;0.50;;
15287;SDS011;7745;48.708;9.026;2023-04-12T16:34:19;2.17;;;0.60;;
15287;SDS011;7745;48.708;9.026;2023-04-12T16:36:47;0.70;;;0.57;;
15287;SDS011;7745;48.708;9.026;2023-04-12T16:39:15;1.03;;;0.73;;
15287;SDS011;7745;48.708;9.026;2023-04-12T16:41:42;2.13;;;0.53;;
15287;SDS011;7745;48.708;9.026;2023-04-12T16:44:15;1.23;;;0.50;;
15287;SDS011;7745;48.708;9.026;2023-04-12T16:46:44;2.13;;;0.80;;
15287;SDS011;7745;48.708;9.026;2023-04-12T16:49:11;2.67;;;0.80;;
15287;SDS011;7745;48.708;9.026;2023-04-12T16:51:39;1.87;;;1.23;;
15287;SDS011;7745;48.708;9.026;2023-04-12T16:54:06;1.43;;;0.93;;
15287;SDS011;7745;48.708;9.026;2023-04-12T16:56:33;0.80;;;0.50;;
15287;SDS011;7745;48.708;9.026;2023-04-12T16:59:00;1.07;;;0.50;;
15287;SDS011;7745;48.708;9.026;2023-04-12T17:01:28;1.37;;;0.50;;
15287;SDS011;7745;48.708;9.026;2023-04-12T17:03:54;0.57;;;0.53;;
15287;SDS011;7745;48.708;9.026;2023-04-12T17:06:21;0.57;;;0.50;;
15287;SDS011;7745;48.708;9.026;2023-04-12T17:08:48;0.70;;;0.60;;
15287;SDS011;7745;48.708;9.026;2023-04-12T17:11:15;2.20;;;0.60;;
15287;SDS011;7745;48.708;9.026;2023-04-12T17:13:42;0.97;;;0.50;;
15287;SDS011;7745;48.708;9.026;2023-04-12T17:16:10;0.57;;;0.47;;
15287;SDS011;7745;48.708;9.026;2023-04-12T17:18:41;0.70;;;0.57;;
15287;SDS011;7745;48.708;9.026;2023-04-12T17:21:08;0.67;;;0.60;;
15287;SDS011;7745;48.708;9.026;2023-04-12T17:23:35;0.57;;;0.57;;
15287;SDS011;7745;48.708;9.026;2023-04-12T17:26:02;2.20;;;0.70;;
15287;SDS011;7745;48.708;9.026;2023-04-12T17:28:30;1.63;;;0.70;;
15287;SDS011;7745;48.708;9.026;2023-04-12T17:30:58;0.97;;;0.60;;
15287;SDS011;7745;48.708;9.026;2023-04-12T17:33:25;1.20;;;1.00;;
15287;SDS011;7745;48.708;9.026;2023-04-12T17:35:54;3.83;;;0.70;;
15287;SDS011;7745;48.708;9.026;2023-04-12T17:38:21;0.83;;;0.50;;
15287;SDS011;7745;48.708;9.026;2023-04-12T17:40:47;0.70;;;0.60;;
15287;SDS011;7745;48.708;9.026;2023-04-12T17:43:15;3.83;;;0.80;;
15287;SDS011;7745;48.708;9.026;2023-04-12T17:45:41;1.17;;;0.73;;
15287;SDS011;7745;48.708;9.026;2023-04-12T17:48:08;0.70;;;0.50;;
15287;SDS011;7745;48.708;9.026;2023-04-12T17:50:35;1.00;;;0.70;;
15287;SDS011;7745;48.708;9.026;2023-04-12T17:53:03;1.27;;;0.70;;
15287;SDS011;7745;48.708;9.026;2023-04-12T17:55:30;0.50;;;0.50;;
15287;SDS011;7745;48.708;9.026;2023-04-12T17:57:57;0.70;;;0.50;;
15287;SDS011;7745;48.708;9.026;2023-04-12T18:00:24;1.10;;;0.63;;
15287;SDS011;7745;48.708;9.026;2023-04-12T18:02:51;1.43;;;0.70;;
15287;SDS011;7745;48.708;9.026;2023-04-12T18:05:18;1.90;;;0.60;;
15287;SDS011;7745;48.708;9.026;2023-04-12T18:07:44;0.63;;;0.53;;
15287;SDS011;7745;48.708;9.026;2023-04-12T18:10:13;0.50;;;0.40;;
15287;SDS011;7745;48.708;9.026;2023-04-12T18:12:41;0.83;;;0.50;;
15287;SDS011;7745;48.708;9.026;2023-04-12T18:15:09;0.60;;;0.60;;
15287;SDS011;7745;48.708;9.026;2023-04-12T18:17:36;0.40;;;0.40;;
15287;SDS011;7745;48.708;9.026;2023-04-12T18:20:05;1.83;;;0.73;;
15287;SDS011;7745;48.708;9.026;2023-04-12T18:22:34;1.83;;;0.70;;
15287;SDS011;7745;48.708;9.026;2023-04-12T18:25:01;1.60;;;0.87;;
15287;SDS011;7745;48.708;9.026;2023-04-12T18:27:29;1.83;;;0.50;;
15287;SDS011;7745;48.708;9.026;2023-04-12T18:29:56;0.60;;;0.50;;
15287;SDS011;7745;48.708;9.026;2023-04-12T18:32:25;0.57;;;0.40;;
15287;SDS011;7745;48.708;9.026;2023-04-12T18:34:52;1.30;;;0.60;;
15287;SDS011;7745;48.708;9.026;2023-04-12T18:37:18;1.07;;;0.60;;
15287;SDS011;7745;48.708;9.026;2023-04-12T18:39:45;1.93;;;0.60;;
15287;SDS011;7745;48.708;9.026;2023-04-12T18:42:12;0.77;;;0.73;;
15287;SDS011;7745;48.708;9.026;2023-04-12T18:44:40;1.63;;;0.80;;
15287;SDS011;7745;48.708;9.026;2023-04-12T18:47:07;1.20;;;0.87;;
15287;SDS011;7745;48.708;9.026;2023-04-12T18:49:34;1.57;;;0.80;;
15287;SDS011;7745;48.708;9.026;2023-04-12T18:52:02;2.87;;;0.80;;
15287;SDS011;7745;48.708;9.026;2023-04-12T18:54:29;3.43;;;2.70;;
15287;SDS011;7745;48.708;9.026;2023-04-12T18:56:56;5.40;;;5.00;;
15287;SDS011;7745;48.708;9.026;2023-04-12T18:59:25;3.23;;;3.03;;
15287;SDS011;7745;48.708;9.026;2023-04-12T19:01:54;1.17;;;0.87;;
15287;SDS011;7745;48.708;9.026;2023-04-12T19:04:20;1.47;;;0.70;;
15287;SDS011;7745;48.708;9.026;2023-04-12T19:06:47;1.10;;;0.73;;
15287;SDS011;7745;48.708;9.026;2023-04-12T19:09:14;2.60;;;0.90;;
15287;SDS011;7745;48.708;9.026;2023-04-12T19:11:41;1.40;;;0.70;;
15287;SDS011;7745;48.708;9.026;2023-04-12T19:14:07;1.27;;;1.00;;
15287;SDS011;7745;48.708;9.026;2023-04-12T19:16:34;0.80;;;0.80;;